Matoaca, Virginia
Current Conditions -  °F | °C
As of 2:15 AM on Saturday 25 Oct 2014 (Local Time) from KPTB Reporting Station
Haze Haze  
Wind Chill: 42°   Ceiling: Unl
Heat Index: 42°   Visibility: 5mi
Dew Point: 40°   Wind: 0mph
Humidity: 95%   Direction: NA
Pressure: 29.98"   Gusts: NA
Location:  37.2163°N, 77.4783°W
Report Text: KPTB 250615Z AUTO 00000KT 5SM BR CLR 05/05 A2998 RMK AO2 T00530045
Loading
Personal Weather Stations






























Interactive Weather Map
Tropical Storm Tracking
New forecast layout! Learn more

10-Day Weather Forecast

Advertisements
Track Severe Weather on mobile